createdAt,value
2023-11-23T00:00:33.493Z,42.20
2023-11-23T00:01:33.565Z,54.30
2023-11-23T00:02:33.446Z,49.80
2023-11-23T00:03:33.420Z,51.20
2023-11-23T00:04:33.480Z,40.40
2023-11-23T00:05:33.427Z,48.40
2023-11-23T00:06:33.434Z,51.50
2023-11-23T00:07:33.411Z,42.00
2023-11-23T00:08:33.380Z,54.40
2023-11-23T00:09:33.371Z,65.90
2023-11-23T00:10:34.411Z,58.70
2023-11-23T00:11:33.349Z,48.60
2023-11-23T00:12:33.343Z,58.60
2023-11-23T00:13:33.387Z,59.60
2023-11-23T00:14:34.316Z,59.80
2023-11-23T00:15:33.308Z,53.40
2023-11-23T00:16:33.314Z,65.50
2023-11-23T00:17:33.264Z,36.70
2023-11-23T00:18:33.434Z,67.00
2023-11-23T00:19:33.264Z,62.20
2023-11-23T00:20:33.204Z,70.50
2023-11-23T00:21:33.219Z,63.90
2023-11-23T00:22:33.235Z,50.30
2023-11-23T00:23:33.233Z,81.00
2023-11-23T00:24:33.216Z,41.40
2023-11-23T00:25:33.156Z,51.00
2023-11-23T00:26:33.140Z,56.40
2023-11-23T00:27:33.179Z,56.50
2023-11-23T00:28:33.127Z,67.20
2023-11-23T00:29:33.107Z,52.80
2023-11-23T00:30:33.084Z,64.00
2023-11-23T00:31:33.085Z,51.30
2023-11-23T00:32:33.107Z,61.90
2023-11-23T00:33:33.246Z,77.00
2023-11-23T00:34:33.082Z,74.30
2023-11-23T00:35:33.147Z,57.40
2023-11-23T00:36:33.023Z,59.60
2023-11-23T00:37:33.004Z,67.10
2023-11-23T00:38:33.030Z,49.30
2023-11-23T00:39:33.002Z,66.60
2023-11-23T00:40:33.008Z,64.50
2023-11-23T00:41:32.962Z,54.10
2023-11-23T00:42:33.180Z,57.10
2023-11-23T00:43:32.969Z,67.10
2023-11-23T00:44:32.970Z,74.70
2023-11-23T00:45:32.899Z,73.90
2023-11-23T00:46:32.938Z,61.40
2023-11-23T00:47:32.936Z,72.60
2023-11-23T00:48:32.988Z,69.30
2023-11-23T00:49:32.868Z,73.80
2023-11-23T00:50:33.034Z,62.40
2023-11-23T00:51:32.840Z,63.50
2023-11-23T00:52:32.816Z,57.00
2023-11-23T00:53:32.836Z,63.50
2023-11-23T00:54:32.789Z,68.50
2023-11-23T00:55:32.787Z,66.10
2023-11-23T00:56:32.815Z,59.10
2023-11-23T00:57:32.859Z,67.50
2023-11-23T00:58:32.786Z,52.70
2023-11-23T00:59:32.721Z,55.00
2023-11-23T01:00:32.785Z,44.80
2023-11-23T01:01:32.975Z,55.30
2023-11-23T01:02:32.761Z,78.20
2023-11-23T01:03:32.771Z,70.80
2023-11-23T01:04:32.656Z,64.10
2023-11-23T01:05:32.673Z,58.80
2023-11-23T01:06:32.627Z,52.30
2023-11-23T01:07:32.611Z,74.50
2023-11-23T01:08:32.638Z,79.00
2023-11-23T01:09:32.581Z,65.30
2023-11-23T01:10:32.587Z,71.60
2023-11-23T01:11:32.591Z,79.40
2023-11-23T01:12:32.561Z,93.70
2023-11-23T01:13:32.621Z,90.40
2023-11-23T01:14:32.636Z,78.10
2023-11-23T01:15:32.584Z,61.20
2023-11-23T01:16:32.526Z,74.10
2023-11-23T01:17:32.528Z,85.30
2023-11-23T01:18:32.577Z,69.40
2023-11-23T01:19:32.656Z,64.20
2023-11-23T01:20:32.467Z,87.80
2023-11-23T01:21:32.605Z,93.20
2023-11-23T01:22:32.431Z,91.50
2023-11-23T01:23:32.450Z,83.30
2023-11-23T01:24:32.388Z,84.60
2023-11-23T01:25:32.410Z,91.60
2023-11-23T01:26:32.360Z,96.00
2023-11-23T01:27:32.387Z,97.80
2023-11-23T01:28:32.341Z,88.40
2023-11-23T01:29:32.325Z,96.80
2023-11-23T01:30:32.331Z,86.10
2023-11-23T01:31:32.324Z,92.80
2023-11-23T01:32:32.348Z,95.00
2023-11-23T01:33:32.431Z,70.80
2023-11-23T01:34:32.385Z,86.70
2023-11-23T01:35:32.310Z,85.20
2023-11-23T01:36:32.414Z,87.00
2023-11-23T01:37:32.255Z,93.20
2023-11-23T01:38:32.213Z,96.90
2023-11-23T01:39:32.410Z,95.40
2023-11-23T01:40:32.227Z,58.10
2023-11-23T01:41:32.202Z,93.10
2023-11-23T01:42:32.206Z,86.90
2023-11-23T01:43:32.160Z,89.50
2023-11-23T01:44:32.216Z,83.80
2023-11-23T01:45:32.142Z,84.00
2023-11-23T01:46:32.107Z,88.20
2023-11-23T01:47:32.166Z,76.20
2023-11-23T01:48:32.388Z,94.50
2023-11-23T01:49:32.081Z,77.30
2023-11-23T01:50:32.048Z,78.70
2023-11-23T01:51:32.045Z,100.00
2023-11-23T01:52:32.068Z,89.20
2023-11-23T01:53:32.059Z,91.80
2023-11-23T01:54:32.010Z,73.90
2023-11-23T01:55:32.016Z,102.20
2023-11-23T01:56:32.012Z,85.90
2023-11-23T01:57:34.673Z,109.00
2023-11-23T01:58:31.951Z,109.30
2023-11-23T01:59:31.936Z,93.30
2023-11-23T02:00:31.975Z,93.70
2023-11-23T02:01:31.948Z,102.00
2023-11-23T02:02:31.961Z,111.40
2023-11-23T02:03:31.995Z,109.90
2023-11-23T02:04:32.021Z,87.70
2023-11-23T02:05:31.874Z,112.30
2023-11-23T02:06:31.833Z,121.00
2023-11-23T02:07:31.850Z,93.40
2023-11-23T02:08:31.901Z,105.50
2023-11-23T02:09:31.816Z,104.90
2023-11-23T02:10:31.785Z,104.30
2023-11-23T02:11:31.776Z,98.70
2023-11-23T02:12:31.789Z,114.90
2023-11-23T02:13:32.001Z,103.80
2023-11-23T02:14:31.790Z,118.80
2023-11-23T02:15:31.807Z,105.80
2023-11-23T02:16:31.765Z,134.80
2023-11-23T02:17:31.736Z,94.30
2023-11-23T02:18:32.024Z,71.50
2023-11-23T02:19:31.684Z,123.50
2023-11-23T02:20:31.799Z,114.60
2023-11-23T02:21:31.930Z,108.30
2023-11-23T02:22:31.835Z,110.10
2023-11-23T02:23:31.628Z,94.70
2023-11-23T02:24:31.638Z,88.20
2023-11-23T02:25:31.607Z,116.20
2023-11-23T02:26:31.623Z,108.70
2023-11-23T02:27:31.672Z,96.70
2023-11-23T02:28:31.559Z,85.90
2023-11-23T02:29:31.770Z,110.20
2023-11-23T02:30:31.584Z,113.30
2023-11-23T02:31:31.572Z,105.70
2023-11-23T02:32:31.514Z,125.60
2023-11-23T02:33:31.556Z,117.80
2023-11-23T02:34:31.551Z,117.70
2023-11-23T02:35:31.470Z,105.30
2023-11-23T02:36:31.462Z,102.10
2023-11-23T02:37:31.442Z,70.60
2023-11-23T02:38:31.471Z,95.30
2023-11-23T02:39:31.423Z,118.90
2023-11-23T02:40:31.446Z,72.40
2023-11-23T02:41:31.444Z,117.00
2023-11-23T02:42:31.368Z,119.50
2023-11-23T02:43:31.363Z,132.90
2023-11-23T02:44:31.364Z,122.20
2023-11-23T02:45:31.475Z,114.20
2023-11-23T02:46:31.316Z,124.10
2023-11-23T02:47:31.384Z,124.40
2023-11-23T02:48:31.409Z,95.90
2023-11-23T02:49:31.320Z,116.50
2023-11-23T02:50:31.419Z,110.00
2023-11-23T02:51:31.303Z,123.20
2023-11-23T02:52:31.248Z,114.10
2023-11-23T02:53:31.362Z,118.60
2023-11-23T02:54:31.240Z,123.50
2023-11-23T02:55:31.344Z,97.70
2023-11-23T02:56:31.215Z,107.40
2023-11-23T02:57:31.193Z,124.40
2023-11-23T02:58:31.225Z,107.30
2023-11-23T02:59:31.197Z,128.60
2023-11-23T03:00:31.159Z,119.80
2023-11-23T03:01:31.215Z,110.50
2023-11-23T03:02:31.216Z,120.20
2023-11-23T03:03:31.195Z,112.30
2023-11-23T03:04:31.179Z,107.20
2023-11-23T03:05:31.144Z,115.50
2023-11-23T03:06:31.130Z,104.30
2023-11-23T03:07:31.051Z,114.20
2023-11-23T03:08:31.104Z,117.70
2023-11-23T03:09:31.261Z,137.40
2023-11-23T03:10:31.019Z,118.80
2023-11-23T03:11:31.034Z,130.00
2023-11-23T03:12:31.007Z,102.50
2023-11-23T03:13:31.060Z,138.10
2023-11-23T03:14:31.004Z,134.50
2023-11-23T03:15:31.034Z,139.80
2023-11-23T03:16:31.185Z,137.20
2023-11-23T03:17:31.064Z,104.40
2023-11-23T03:18:31.033Z,130.10
2023-11-23T03:19:31.036Z,71.20
2023-11-23T03:20:30.993Z,118.20
2023-11-23T03:21:31.088Z,143.40
2023-11-23T03:22:30.922Z,108.70
2023-11-23T03:23:30.954Z,133.20
2023-11-23T03:24:30.965Z,134.50
2023-11-23T03:25:30.967Z,145.70
2023-11-23T03:26:31.017Z,151.90
2023-11-23T03:27:30.848Z,150.60
2023-11-23T03:28:31.099Z,125.60
2023-11-23T03:29:30.961Z,144.60
2023-11-23T03:30:30.905Z,100.10
2023-11-23T03:31:30.744Z,102.40
2023-11-23T03:32:31.267Z,111.50
2023-11-23T03:33:31.055Z,151.90
2023-11-23T03:34:30.718Z,158.70
2023-11-23T03:35:30.719Z,109.80
2023-11-23T03:36:30.984Z,191.10
2023-11-23T03:37:30.699Z,159.20
2023-11-23T03:38:30.642Z,144.20
2023-11-23T03:39:30.634Z,126.90
2023-11-23T03:40:30.637Z,178.60
2023-11-23T03:41:30.743Z,168.70
2023-11-23T03:42:30.948Z,180.40
2023-11-23T03:43:30.580Z,188.20
2023-11-23T03:44:30.611Z,156.00
2023-11-23T03:45:30.663Z,155.60
2023-11-23T03:46:30.713Z,126.00
2023-11-23T03:47:30.566Z,109.20
2023-11-23T03:48:30.674Z,177.60
2023-11-23T03:49:30.520Z,135.70
2023-11-23T03:50:30.499Z,173.00
2023-11-23T03:51:30.734Z,188.00
2023-11-23T03:52:30.494Z,201.50
2023-11-23T03:53:30.494Z,178.60
2023-11-23T03:54:30.440Z,152.30
2023-11-23T03:55:30.433Z,185.30
2023-11-23T03:56:30.599Z,189.00
2023-11-23T03:57:30.431Z,140.40
2023-11-23T03:58:30.430Z,188.30
2023-11-23T03:59:30.382Z,177.70
2023-11-23T04:00:30.376Z,209.00
2023-11-23T04:01:30.401Z,204.90
2023-11-23T04:02:30.407Z,192.90
2023-11-23T04:03:30.372Z,174.30
2023-11-23T04:04:30.389Z,184.20
2023-11-23T04:05:30.329Z,181.20
2023-11-23T04:06:30.365Z,167.00
2023-11-23T04:07:30.304Z,124.90
2023-11-23T04:08:30.387Z,156.20
2023-11-23T04:09:30.247Z,141.00
2023-11-23T04:10:30.267Z,153.00
2023-11-23T04:11:30.300Z,165.50
2023-11-23T04:12:30.212Z,166.80
2023-11-23T04:13:30.233Z,183.00
2023-11-23T04:14:30.254Z,183.80
2023-11-23T04:15:30.199Z,137.90
2023-11-23T04:16:30.174Z,192.20
2023-11-23T04:17:30.217Z,188.30
2023-11-23T04:18:30.231Z,118.10
2023-11-23T04:19:30.149Z,169.90
2023-11-23T04:20:33.277Z,195.10
2023-11-23T04:21:30.150Z,153.80
2023-11-23T04:22:30.093Z,151.30
2023-11-23T04:23:30.078Z,163.40
2023-11-23T04:24:30.073Z,143.70
2023-11-23T04:25:30.035Z,174.60
2023-11-23T04:26:30.100Z,194.50
2023-11-23T04:27:30.022Z,196.10
2023-11-23T04:28:30.009Z,181.50
2023-11-23T04:29:30.038Z,188.50
2023-11-23T04:30:30.011Z,211.30
2023-11-23T04:31:29.979Z,185.00
2023-11-23T04:32:29.997Z,192.80
2023-11-23T04:33:30.047Z,205.60
2023-11-23T04:34:30.027Z,187.70
2023-11-23T04:35:29.934Z,196.30
2023-11-23T04:36:29.899Z,165.00
2023-11-23T04:37:29.908Z,195.60
2023-11-23T04:38:30.086Z,198.60
2023-11-23T04:39:29.924Z,155.90
2023-11-23T04:40:29.863Z,175.20
2023-11-23T04:41:29.901Z,148.50
2023-11-23T04:42:29.830Z,191.20
2023-11-23T04:43:29.870Z,184.40
2023-11-23T04:44:29.810Z,161.50
2023-11-23T04:45:29.951Z,160.70
2023-11-23T04:46:29.812Z,170.60
2023-11-23T04:47:29.915Z,112.90
2023-11-23T04:48:29.857Z,189.50
2023-11-23T04:49:29.764Z,109.50
2023-11-23T04:50:29.789Z,162.90
2023-11-23T04:51:29.853Z,153.90
2023-11-23T04:52:29.821Z,192.30
2023-11-23T04:53:29.686Z,169.10
2023-11-23T04:54:29.670Z,161.30
2023-11-23T04:55:29.666Z,184.30
2023-11-23T04:56:29.671Z,174.90
2023-11-23T04:57:29.687Z,156.90
2023-11-23T04:58:29.621Z,165.80
2023-11-23T04:59:29.602Z,174.30
2023-11-23T05:00:29.710Z,151.50
2023-11-23T05:01:29.572Z,172.90
2023-11-23T05:02:29.634Z,132.00
2023-11-23T05:03:29.648Z,176.30
2023-11-23T05:04:29.580Z,162.20
2023-11-23T05:05:29.594Z,166.80
2023-11-23T05:06:29.669Z,147.70
2023-11-23T05:07:29.548Z,126.80
2023-11-23T05:08:29.515Z,144.20
2023-11-23T05:09:29.476Z,137.10
2023-11-23T05:10:29.484Z,129.90
2023-11-23T05:11:29.921Z,138.70
2023-11-23T05:12:29.539Z,117.90
2023-11-23T05:13:29.443Z,138.10
2023-11-23T05:14:29.450Z,146.40
2023-11-23T05:15:29.404Z,103.90
2023-11-23T05:16:29.521Z,105.70
2023-11-23T05:17:29.387Z,130.70
2023-11-23T05:18:29.576Z,129.70
2023-11-23T05:19:39.602Z,123.60
2023-11-23T05:20:30.355Z,130.00
2023-11-23T05:21:29.377Z,122.20
2023-11-23T05:22:29.340Z,94.50
2023-11-23T05:23:29.521Z,89.70
2023-11-23T05:24:29.386Z,111.90
2023-11-23T05:25:29.276Z,98.60
2023-11-23T05:26:29.324Z,100.60
2023-11-23T05:27:29.286Z,107.30
2023-11-23T05:28:29.262Z,96.60
2023-11-23T05:29:29.311Z,84.00
2023-11-23T05:30:29.251Z,93.00
2023-11-23T05:31:29.251Z,83.40
2023-11-23T05:32:29.250Z,98.10
2023-11-23T05:33:29.281Z,74.70
2023-11-23T05:34:29.156Z,91.10
2023-11-23T05:35:29.199Z,74.70
2023-11-23T05:36:29.167Z,95.20
2023-11-23T05:37:29.113Z,77.80
2023-11-23T05:38:29.116Z,83.30
2023-11-23T05:39:29.165Z,63.90
2023-11-23T05:40:29.117Z,73.40
2023-11-23T05:41:29.074Z,52.90
2023-11-23T05:42:29.084Z,81.70
2023-11-23T05:43:29.044Z,80.00
2023-11-23T05:44:29.019Z,54.80
2023-11-23T05:45:29.142Z,79.20
2023-11-23T05:46:29.056Z,73.10
2023-11-23T05:47:29.008Z,73.00
2023-11-23T05:48:29.028Z,71.90
2023-11-23T05:49:28.971Z,48.00
2023-11-23T05:50:28.975Z,61.80
2023-11-23T05:51:28.972Z,40.40
2023-11-23T05:52:28.962Z,50.30
2023-11-23T05:53:28.916Z,60.00
2023-11-23T05:54:29.087Z,66.20
2023-11-23T05:55:28.893Z,63.10
2023-11-23T05:56:28.865Z,70.20
2023-11-23T05:57:28.878Z,65.60
2023-11-23T05:58:28.836Z,62.30
2023-11-23T05:59:28.845Z,66.70
2023-11-23T06:00:28.942Z,67.50
2023-11-23T06:01:28.826Z,56.00
2023-11-23T06:02:28.855Z,59.80
2023-11-23T06:03:28.889Z,64.80
2023-11-23T06:04:28.928Z,59.80
2023-11-23T06:05:28.898Z,51.80
2023-11-23T06:06:28.749Z,56.40
2023-11-23T06:07:28.805Z,59.70
2023-11-23T06:08:28.756Z,39.80
2023-11-23T06:09:28.749Z,48.50
2023-11-23T06:10:28.742Z,57.10
2023-11-23T06:11:28.672Z,48.10
2023-11-23T06:12:28.679Z,52.20
2023-11-23T06:13:28.831Z,47.20
2023-11-23T06:14:28.886Z,37.30
2023-11-23T06:15:28.768Z,46.10
2023-11-23T06:16:28.753Z,39.60
2023-11-23T06:17:28.699Z,50.80
2023-11-23T06:18:28.623Z,50.40
2023-11-23T06:19:28.575Z,50.10
2023-11-23T06:20:28.992Z,43.30
2023-11-23T06:21:28.540Z,46.80
2023-11-23T06:22:28.573Z,54.20
2023-11-23T06:23:28.642Z,52.30
2023-11-23T06:24:28.663Z,43.40
2023-11-23T06:25:28.546Z,50.20
2023-11-23T06:26:28.489Z,51.50
2023-11-23T06:27:28.521Z,37.00
2023-11-23T06:28:28.452Z,32.50
2023-11-23T06:29:28.449Z,49.80
2023-11-23T06:30:28.822Z,48.80
2023-11-23T06:31:28.447Z,43.90
2023-11-23T06:32:28.561Z,47.20
2023-11-23T06:33:28.585Z,48.60
2023-11-23T06:34:28.389Z,46.20
2023-11-23T06:35:28.408Z,40.00
2023-11-23T06:36:28.369Z,46.90
2023-11-23T06:37:28.507Z,42.20
2023-11-23T06:38:28.313Z,44.00
2023-11-23T06:39:28.741Z,47.30
2023-11-23T06:40:28.336Z,46.50
2023-11-23T06:41:28.415Z,45.80
2023-11-23T06:42:28.431Z,47.10
2023-11-23T06:43:28.285Z,41.40
2023-11-23T06:44:28.273Z,34.80
2023-11-23T06:45:28.457Z,39.50
2023-11-23T06:46:28.328Z,44.90
2023-11-23T06:47:28.220Z,41.00
2023-11-23T06:48:28.321Z,43.10
2023-11-23T06:49:28.205Z,49.70
2023-11-23T06:50:28.176Z,48.40
2023-11-23T06:51:28.227Z,29.10
2023-11-23T06:52:28.149Z,34.00
2023-11-23T06:53:28.158Z,41.30
2023-11-23T06:54:28.120Z,39.20
2023-11-23T06:55:28.447Z,40.60
2023-11-23T06:56:28.115Z,39.90
2023-11-23T06:57:28.205Z,39.00
2023-11-23T06:58:28.244Z,39.70
2023-11-23T06:59:28.042Z,46.20
2023-11-23T07:00:28.364Z,43.20
2023-11-23T07:01:28.092Z,36.00
2023-11-23T07:02:28.125Z,40.60
2023-11-23T07:03:28.099Z,42.30
2023-11-23T07:04:28.066Z,44.60
2023-11-23T07:05:28.011Z,44.50
2023-11-23T07:06:28.115Z,48.00
2023-11-23T07:07:28.041Z,39.20
2023-11-23T07:08:27.981Z,45.30
2023-11-23T07:09:27.993Z,39.40
2023-11-23T07:10:28.249Z,43.20
2023-11-23T07:11:27.936Z,42.60
2023-11-23T07:12:28.008Z,37.70
2023-11-23T07:13:27.882Z,37.30
2023-11-23T07:14:27.875Z,39.00
2023-11-23T07:15:27.999Z,36.60
2023-11-23T07:16:27.879Z,41.30
2023-11-23T07:17:27.863Z,44.90
2023-11-23T07:18:27.893Z,46.60
2023-11-23T07:19:27.876Z,43.40
2023-11-23T07:20:27.855Z,44.00
2023-11-23T07:21:27.887Z,35.80
2023-11-23T07:22:27.781Z,39.00
2023-11-23T07:23:27.781Z,43.60
2023-11-23T07:24:32.014Z,36.60
2023-11-23T07:25:27.865Z,42.10
2023-11-23T07:26:27.847Z,37.60
2023-11-23T07:27:27.726Z,38.80
2023-11-23T07:28:27.826Z,35.00
2023-11-23T07:29:27.704Z,42.50
2023-11-23T07:30:27.766Z,37.70
2023-11-23T07:31:27.654Z,39.60
2023-11-23T07:32:27.882Z,36.60
2023-11-23T07:33:27.680Z,37.30
2023-11-23T07:34:27.668Z,27.40
2023-11-23T07:35:27.674Z,40.80
2023-11-23T07:36:27.801Z,34.70
2023-11-23T07:37:27.586Z,27.40
2023-11-23T07:38:27.589Z,31.90
2023-11-23T07:39:27.629Z,32.30
2023-11-23T07:40:27.590Z,27.50
2023-11-23T07:41:27.513Z,34.10
2023-11-23T07:42:27.729Z,34.20
2023-11-23T07:43:27.545Z,34.20
2023-11-23T07:44:27.510Z,34.20
2023-11-23T07:45:27.547Z,29.80
2023-11-23T07:46:27.566Z,33.10
2023-11-23T07:47:27.462Z,34.00
2023-11-23T07:48:27.731Z,33.10
2023-11-23T07:49:27.476Z,39.70
2023-11-23T07:50:27.438Z,33.10
2023-11-23T07:51:27.460Z,30.50
2023-11-23T07:52:27.392Z,39.30
2023-11-23T07:53:27.413Z,34.90
2023-11-23T07:54:27.468Z,29.10
2023-11-23T07:55:27.371Z,33.70
2023-11-23T07:56:27.334Z,32.30
2023-11-23T07:57:27.517Z,34.50
2023-11-23T07:58:27.413Z,37.60
2023-11-23T07:59:27.306Z,26.70
2023-11-23T08:00:27.358Z,31.90
2023-11-23T08:01:27.346Z,35.60
2023-11-23T08:02:27.260Z,35.30
2023-11-23T08:03:27.433Z,28.70
2023-11-23T08:04:27.339Z,30.90
2023-11-23T08:05:27.282Z,31.40
2023-11-23T08:06:27.312Z,32.30
2023-11-23T08:07:27.190Z,29.30
2023-11-23T08:08:27.187Z,27.50
2023-11-23T08:09:27.243Z,28.60
2023-11-23T08:10:27.153Z,34.40
2023-11-23T08:11:27.277Z,32.90
2023-11-23T08:12:27.179Z,27.20
2023-11-23T08:13:27.111Z,24.10
2023-11-23T08:14:27.268Z,20.50
2023-11-23T08:15:27.196Z,27.20
2023-11-23T08:16:27.164Z,29.30
2023-11-23T08:17:27.116Z,31.70
2023-11-23T08:18:36.603Z,24.50
2023-11-23T08:19:28.150Z,27.90
2023-11-23T08:20:27.030Z,28.20
2023-11-23T08:21:27.173Z,29.10
2023-11-23T08:22:27.027Z,27.70
2023-11-23T08:23:27.025Z,26.70
2023-11-23T08:24:27.108Z,27.40
2023-11-23T08:25:26.998Z,28.00
2023-11-23T08:26:27.009Z,23.40
2023-11-23T08:27:26.993Z,22.10
2023-11-23T08:28:26.924Z,29.40
2023-11-23T08:29:26.904Z,25.70
2023-11-23T08:30:27.021Z,27.30
2023-11-23T08:31:26.892Z,25.90
2023-11-23T08:32:27.089Z,31.40
2023-11-23T08:33:26.962Z,27.60
2023-11-23T08:34:26.892Z,26.40
2023-11-23T08:35:26.927Z,26.30
2023-11-23T08:36:26.882Z,27.50
2023-11-23T08:37:26.845Z,30.00
2023-11-23T08:38:26.781Z,32.00
2023-11-23T08:39:26.828Z,27.70
2023-11-23T08:40:26.910Z,32.30
2023-11-23T08:41:26.759Z,27.30
2023-11-23T08:42:26.778Z,26.60
2023-11-23T08:43:26.772Z,27.30
2023-11-23T08:44:26.741Z,28.50
2023-11-23T08:45:26.814Z,26.70
2023-11-23T08:46:26.783Z,29.20
2023-11-23T08:47:26.757Z,28.80
2023-11-23T08:48:26.783Z,29.00
2023-11-23T08:49:26.654Z,33.20
2023-11-23T08:50:26.626Z,29.20
2023-11-23T08:51:26.657Z,25.30
2023-11-23T08:52:26.621Z,28.80
2023-11-23T08:53:26.664Z,28.50
2023-11-23T08:54:26.589Z,26.60
2023-11-23T08:55:26.588Z,28.80
2023-11-23T08:56:26.567Z,24.40
2023-11-23T08:57:26.620Z,30.20
2023-11-23T08:58:26.571Z,31.90
2023-11-23T08:59:26.576Z,30.80
2023-11-23T09:00:26.560Z,28.30
2023-11-23T09:01:26.490Z,27.70
2023-11-23T09:02:26.595Z,28.00
2023-11-23T09:03:26.663Z,33.60
2023-11-23T09:04:33.310Z,27.60
2023-11-23T09:05:27.778Z,31.90
2023-11-23T09:06:26.508Z,29.00
2023-11-23T09:07:26.452Z,27.80
2023-11-23T09:08:26.425Z,30.80
2023-11-23T09:09:26.497Z,28.60
2023-11-23T09:10:26.377Z,26.20
2023-11-23T09:11:26.398Z,29.80
2023-11-23T09:12:26.382Z,25.60
2023-11-23T09:13:26.360Z,32.20
2023-11-23T09:14:26.366Z,22.90
2023-11-23T09:15:26.330Z,29.80
2023-11-23T09:16:26.432Z,26.30
2023-11-23T09:17:26.318Z,27.70
2023-11-23T09:18:26.425Z,27.70
2023-11-23T09:19:26.314Z,27.00
2023-11-23T09:20:26.251Z,23.00
2023-11-23T09:21:26.279Z,26.00
2023-11-23T09:22:26.316Z,21.70
2023-11-23T09:23:26.220Z,20.90
2023-11-23T09:24:26.284Z,22.20
2023-11-23T09:25:26.217Z,25.80
2023-11-23T09:26:26.180Z,26.40
2023-11-23T09:27:26.284Z,28.80
2023-11-23T09:28:26.167Z,20.40
2023-11-23T09:29:26.132Z,22.50
2023-11-23T09:30:26.235Z,27.00
2023-11-23T09:31:26.176Z,26.10
2023-11-23T09:32:26.127Z,25.00
2023-11-23T09:33:27.632Z,23.50
2023-11-23T09:34:26.081Z,26.30
2023-11-23T09:35:26.112Z,30.00
2023-11-23T09:36:28.306Z,28.70
2023-11-23T09:37:26.043Z,22.20
2023-11-23T09:38:26.020Z,21.70
2023-11-23T09:39:26.129Z,19.10
2023-11-23T09:40:26.022Z,31.30
2023-11-23T09:41:26.016Z,16.40
2023-11-23T09:42:26.026Z,21.70
2023-11-23T09:43:25.961Z,25.00
2023-11-23T09:44:25.950Z,20.60
2023-11-23T09:45:26.694Z,20.20
2023-11-23T09:46:25.965Z,22.90
2023-11-23T09:47:26.018Z,22.00
2023-11-23T09:48:25.955Z,20.20
2023-11-23T09:49:25.916Z,21.50
2023-11-23T09:50:25.876Z,21.90
2023-11-23T09:51:25.884Z,19.20
2023-11-23T09:52:25.848Z,19.40
2023-11-23T09:53:25.869Z,24.00
2023-11-23T09:54:25.831Z,23.40
2023-11-23T09:55:25.846Z,21.30
2023-11-23T09:56:25.792Z,22.40
2023-11-23T09:57:26.089Z,19.80
2023-11-23T09:58:25.758Z,22.80
2023-11-23T09:59:25.763Z,22.00
2023-11-23T10:00:25.857Z,20.50
2023-11-23T10:01:25.769Z,19.80
2023-11-23T10:02:25.849Z,19.50
2023-11-23T10:03:25.823Z,24.70
2023-11-23T10:04:25.749Z,21.80
2023-11-23T10:05:25.883Z,22.70
2023-11-23T10:06:25.685Z,22.70
2023-11-23T10:07:25.679Z,25.60
2023-11-23T10:08:25.634Z,18.30
2023-11-23T10:09:25.835Z,19.90
2023-11-23T10:10:25.615Z,18.50
2023-11-23T10:11:25.655Z,13.40
2023-11-23T10:12:25.575Z,20.70
2023-11-23T10:13:25.831Z,18.60
2023-11-23T10:14:25.558Z,21.70
2023-11-23T10:15:25.730Z,18.30
2023-11-23T10:16:25.577Z,18.10
2023-11-23T10:17:25.521Z,18.90
2023-11-23T10:18:25.602Z,19.60
2023-11-23T10:19:25.615Z,20.50
2023-11-23T10:20:25.478Z,23.30
2023-11-23T10:21:25.500Z,18.00
2023-11-23T10:22:25.452Z,18.20
2023-11-23T10:23:25.461Z,18.20
2023-11-23T10:24:25.542Z,17.50
2023-11-23T10:25:25.543Z,21.70
2023-11-23T10:26:25.409Z,19.90
2023-11-23T10:27:25.448Z,17.50
2023-11-23T10:28:25.396Z,21.80
2023-11-23T10:29:25.338Z,20.90
2023-11-23T10:30:25.345Z,17.80
2023-11-23T10:31:25.341Z,19.20
2023-11-23T10:32:25.366Z,17.40
2023-11-23T10:33:26.010Z,20.70
2023-11-23T10:34:25.335Z,19.60
2023-11-23T10:35:25.343Z,18.20
2023-11-23T10:36:25.290Z,17.60
2023-11-23T10:37:27.508Z,18.50
2023-11-23T10:38:35.480Z,22.00
2023-11-23T10:39:26.345Z,21.60
2023-11-23T10:40:25.186Z,18.50
2023-11-23T10:41:25.247Z,18.10
2023-11-23T10:42:25.264Z,21.30
2023-11-23T10:43:25.215Z,19.90
2023-11-23T10:44:25.299Z,15.30
2023-11-23T10:45:25.880Z,21.90
2023-11-23T10:46:25.200Z,14.60
2023-11-23T10:47:25.310Z,17.80
2023-11-23T10:48:25.164Z,16.60
2023-11-23T10:49:25.096Z,19.10
2023-11-23T10:50:25.073Z,17.40
2023-11-23T10:51:25.088Z,20.20
2023-11-23T10:52:25.038Z,17.40
2023-11-23T10:53:25.085Z,17.00
2023-11-23T10:54:25.093Z,22.10
2023-11-23T10:55:25.176Z,18.10
2023-11-23T10:56:24.995Z,16.70
2023-11-23T10:57:25.895Z,15.40
2023-11-23T10:58:25.015Z,21.00
2023-11-23T10:59:24.984Z,21.80
2023-11-23T11:00:25.029Z,18.70
2023-11-23T11:01:25.050Z,14.80
2023-11-23T11:02:24.997Z,22.60
2023-11-23T11:03:26.215Z,19.30
2023-11-23T11:04:24.939Z,17.90
2023-11-23T11:05:24.883Z,15.60
2023-11-23T11:06:25.136Z,19.30
2023-11-23T11:07:24.843Z,16.20
2023-11-23T11:08:24.840Z,14.70
2023-11-23T11:09:26.588Z,14.90
2023-11-23T11:10:24.836Z,14.20
2023-11-23T11:11:24.882Z,14.20
2023-11-23T11:12:24.833Z,16.40
2023-11-23T11:13:24.796Z,17.20
2023-11-23T11:14:24.771Z,16.70
2023-11-23T11:15:26.500Z,15.40
2023-11-23T11:16:24.729Z,20.40
2023-11-23T11:17:24.731Z,16.90
2023-11-23T11:18:24.735Z,16.00
2023-11-23T11:19:24.762Z,20.20
2023-11-23T11:20:24.665Z,15.40
2023-11-23T11:21:25.277Z,16.80
2023-11-23T11:22:24.648Z,18.60
2023-11-23T11:23:24.637Z,16.90
2023-11-23T11:24:24.676Z,14.00
2023-11-23T11:25:24.829Z,16.40
2023-11-23T11:26:24.647Z,16.40
2023-11-23T11:27:26.166Z,14.30
2023-11-23T11:28:24.588Z,17.60
2023-11-23T11:29:24.598Z,16.10
2023-11-23T11:30:24.613Z,13.80
2023-11-23T11:31:24.640Z,18.70
2023-11-23T11:32:24.551Z,17.20
2023-11-23T11:33:24.628Z,16.00
2023-11-23T11:34:24.500Z,16.50
2023-11-23T11:35:26.187Z,18.10
2023-11-23T11:36:24.488Z,17.20
2023-11-23T11:37:24.526Z,14.60
2023-11-23T11:38:24.463Z,14.80
2023-11-23T11:39:24.486Z,14.40
2023-11-23T11:40:24.390Z,15.60
2023-11-23T11:41:25.735Z,13.90
2023-11-23T11:42:24.626Z,17.00
2023-11-23T11:43:24.385Z,17.70
2023-11-23T11:44:24.369Z,16.70
2023-11-23T11:45:24.384Z,17.10
2023-11-23T11:46:24.389Z,17.40
2023-11-23T11:47:26.267Z,19.00
2023-11-23T11:48:24.386Z,19.60
2023-11-23T11:49:24.280Z,14.80
2023-11-23T11:50:24.325Z,19.80
2023-11-23T11:51:24.417Z,16.10
2023-11-23T11:52:24.272Z,15.90
2023-11-23T11:53:24.232Z,16.40
2023-11-23T11:54:24.400Z,15.50
2023-11-23T11:55:24.229Z,15.80
2023-11-23T11:56:24.216Z,15.30
2023-11-23T11:57:24.362Z,16.80
2023-11-23T11:58:24.509Z,21.60
2023-11-23T11:59:26.165Z,18.30
2023-11-23T12:00:24.255Z,16.70
2023-11-23T12:01:24.159Z,19.20
2023-11-23T12:02:24.224Z,15.60
2023-11-23T12:03:24.222Z,15.80
2023-11-23T12:04:24.247Z,18.20
2023-11-23T12:05:24.836Z,19.00
2023-11-23T12:06:24.179Z,14.40
2023-11-23T12:07:24.049Z,15.10
2023-11-23T12:08:24.040Z,17.00
2023-11-23T12:09:31.109Z,22.40
2023-11-23T12:10:25.056Z,20.50
2023-11-23T12:11:24.803Z,16.60
2023-11-23T12:12:24.088Z,19.40
2023-11-23T12:13:24.007Z,16.60
2023-11-23T12:14:23.992Z,16.50
2023-11-23T12:15:24.039Z,19.90
2023-11-23T12:16:24.039Z,18.60
2023-11-23T12:17:23.966Z,18.90
2023-11-23T12:18:23.976Z,18.80
2023-11-23T12:19:24.027Z,17.90
2023-11-23T12:20:23.934Z,19.50
2023-11-23T12:21:24.068Z,21.60
2023-11-23T12:22:23.970Z,21.10
2023-11-23T12:23:24.460Z,18.30
2023-11-23T12:24:23.842Z,22.40
2023-11-23T12:25:23.813Z,17.30
2023-11-23T12:26:23.923Z,20.90
2023-11-23T12:27:24.097Z,18.90
2023-11-23T12:28:23.778Z,19.20
2023-11-23T12:29:23.774Z,18.50
2023-11-23T12:30:23.806Z,20.90
2023-11-23T12:31:23.764Z,16.20
2023-11-23T12:32:23.830Z,17.60
2023-11-23T12:33:23.771Z,25.30
2023-11-23T12:34:23.716Z,17.40
2023-11-23T12:35:23.732Z,17.50
2023-11-23T12:36:23.700Z,17.80
2023-11-23T12:37:23.647Z,19.80
2023-11-23T12:38:23.633Z,19.30
2023-11-23T12:39:23.654Z,22.70
2023-11-23T12:40:23.625Z,20.50
2023-11-23T12:41:23.606Z,24.10
2023-11-23T12:42:23.610Z,19.40
2023-11-23T12:43:23.558Z,24.10
2023-11-23T12:44:23.594Z,16.70
2023-11-23T12:45:23.683Z,24.20
2023-11-23T12:46:23.581Z,21.60